sensor_id;sensor_type;location;lat;lon;timestamp;P1;durP1;ratioP1;P2;durP2;ratioP2
54683;SDS011;40582;53.100;6.686;2023-03-14T00:00:28;41.45;;;6.72;;
54683;SDS011;40582;53.100;6.686;2023-03-14T00:02:53;36.13;;;7.03;;
54683;SDS011;40582;53.100;6.686;2023-03-14T00:05:19;47.63;;;7.25;;
54683;SDS011;40582;53.100;6.686;2023-03-14T00:07:45;39.65;;;6.80;;
54683;SDS011;40582;53.100;6.686;2023-03-14T00:10:12;37.22;;;7.28;;
54683;SDS011;40582;53.100;6.686;2023-03-14T00:12:39;42.10;;;6.82;;
54683;SDS011;40582;53.100;6.686;2023-03-14T00:15:06;34.92;;;6.47;;
54683;SDS011;40582;53.100;6.686;2023-03-14T00:17:33;40.30;;;7.47;;
54683;SDS011;40582;53.100;6.686;2023-03-14T00:20:00;38.90;;;7.35;;
54683;SDS011;40582;53.100;6.686;2023-03-14T00:22:39;37.20;;;6.85;;
54683;SDS011;40582;53.100;6.686;2023-03-14T00:25:07;36.00;;;7.45;;
54683;SDS011;40582;53.100;6.686;2023-03-14T00:27:35;46.72;;;7.47;;
54683;SDS011;40582;53.100;6.686;2023-03-14T00:30:01;38.65;;;6.88;;
54683;SDS011;40582;53.100;6.686;2023-03-14T00:32:27;41.95;;;7.45;;
54683;SDS011;40582;53.100;6.686;2023-03-14T00:34:53;31.35;;;6.38;;
54683;SDS011;40582;53.100;6.686;2023-03-14T00:37:19;31.00;;;7.07;;
54683;SDS011;40582;53.100;6.686;2023-03-14T00:39:44;35.95;;;7.43;;
54683;SDS011;40582;53.100;6.686;2023-03-14T00:42:10;28.80;;;6.40;;
54683;SDS011;40582;53.100;6.686;2023-03-14T00:44:36;38.28;;;6.78;;
54683;SDS011;40582;53.100;6.686;2023-03-14T00:47:01;31.45;;;6.07;;
54683;SDS011;40582;53.100;6.686;2023-03-14T00:49:27;26.48;;;5.47;;
54683;SDS011;40582;53.100;6.686;2023-03-14T00:51:53;29.75;;;6.78;;
54683;SDS011;40582;53.100;6.686;2023-03-14T00:54:19;34.88;;;6.43;;
54683;SDS011;40582;53.100;6.686;2023-03-14T00:56:45;34.08;;;6.18;;
54683;SDS011;40582;53.100;6.686;2023-03-14T00:59:10;34.90;;;7.05;;
54683;SDS011;40582;53.100;6.686;2023-03-14T01:01:36;32.08;;;7.50;;
54683;SDS011;40582;53.100;6.686;2023-03-14T01:04:03;30.80;;;6.65;;
54683;SDS011;40582;53.100;6.686;2023-03-14T01:06:29;34.90;;;6.60;;
54683;SDS011;40582;53.100;6.686;2023-03-14T01:08:57;39.35;;;6.93;;
54683;SDS011;40582;53.100;6.686;2023-03-14T01:11:24;38.17;;;6.93;;
54683;SDS011;40582;53.100;6.686;2023-03-14T01:13:51;33.30;;;6.55;;
54683;SDS011;40582;53.100;6.686;2023-03-14T01:16:18;33.97;;;5.75;;
54683;SDS011;40582;53.100;6.686;2023-03-14T01:18:45;33.70;;;5.90;;
54683;SDS011;40582;53.100;6.686;2023-03-14T01:21:16;29.58;;;6.20;;
54683;SDS011;40582;53.100;6.686;2023-03-14T01:23:43;30.70;;;6.50;;
54683;SDS011;40582;53.100;6.686;2023-03-14T01:26:11;29.30;;;6.00;;
54683;SDS011;40582;53.100;6.686;2023-03-14T01:28:38;23.02;;;5.30;;
54683;SDS011;40582;53.100;6.686;2023-03-14T01:31:04;26.50;;;5.53;;
54683;SDS011;40582;53.100;6.686;2023-03-14T01:33:32;38.40;;;6.05;;
54683;SDS011;40582;53.100;6.686;2023-03-14T01:35:58;23.98;;;5.05;;
54683;SDS011;40582;53.100;6.686;2023-03-14T01:38:24;29.45;;;5.45;;
54683;SDS011;40582;53.100;6.686;2023-03-14T01:40:49;29.17;;;5.43;;
54683;SDS011;40582;53.100;6.686;2023-03-14T01:43:17;25.17;;;5.45;;
54683;SDS011;40582;53.100;6.686;2023-03-14T01:48:53;27.20;;;5.47;;
54683;SDS011;40582;53.100;6.686;2023-03-14T01:51:27;31.63;;;5.80;;
54683;SDS011;40582;53.100;6.686;2023-03-14T01:54:02;32.83;;;5.55;;
54683;SDS011;40582;53.100;6.686;2023-03-14T01:56:46;25.85;;;4.90;;
54683;SDS011;40582;53.100;6.686;2023-03-14T01:59:17;19.88;;;4.43;;
54683;SDS011;40582;53.100;6.686;2023-03-14T02:01:44;19.05;;;4.35;;
54683;SDS011;40582;53.100;6.686;2023-03-14T02:04:12;24.40;;;4.50;;
54683;SDS011;40582;53.100;6.686;2023-03-14T02:06:46;22.52;;;4.65;;
54683;SDS011;40582;53.100;6.686;2023-03-14T02:09:15;22.58;;;4.28;;
54683;SDS011;40582;53.100;6.686;2023-03-14T02:11:41;19.08;;;4.30;;
54683;SDS011;40582;53.100;6.686;2023-03-14T02:14:08;24.98;;;5.28;;
54683;SDS011;40582;53.100;6.686;2023-03-14T02:16:45;23.98;;;4.28;;
54683;SDS011;40582;53.100;6.686;2023-03-14T02:19:11;22.00;;;3.92;;
54683;SDS011;40582;53.100;6.686;2023-03-14T02:21:48;24.55;;;4.38;;
54683;SDS011;40582;53.100;6.686;2023-03-14T02:29:39;25.60;;;4.70;;
54683;SDS011;40582;53.100;6.686;2023-03-14T02:32:11;26.65;;;4.20;;
54683;SDS011;40582;53.100;6.686;2023-03-14T02:34:37;22.08;;;4.15;;
54683;SDS011;40582;53.100;6.686;2023-03-14T02:37:04;23.42;;;3.95;;
54683;SDS011;40582;53.100;6.686;2023-03-14T02:39:33;14.75;;;2.92;;
54683;SDS011;40582;53.100;6.686;2023-03-14T02:42:03;19.63;;;4.15;;
54683;SDS011;40582;53.100;6.686;2023-03-14T02:44:29;20.40;;;3.90;;
54683;SDS011;40582;53.100;6.686;2023-03-14T02:46:54;17.40;;;3.28;;
54683;SDS011;40582;53.100;6.686;2023-03-14T02:49:20;18.55;;;3.78;;
54683;SDS011;40582;53.100;6.686;2023-03-14T02:51:46;13.88;;;3.33;;
54683;SDS011;40582;53.100;6.686;2023-03-14T02:54:13;16.92;;;3.67;;
54683;SDS011;40582;53.100;6.686;2023-03-14T02:56:40;21.73;;;3.65;;
54683;SDS011;40582;53.100;6.686;2023-03-14T02:59:06;16.05;;;3.10;;
54683;SDS011;40582;53.100;6.686;2023-03-14T03:01:32;12.27;;;2.90;;
54683;SDS011;40582;53.100;6.686;2023-03-14T03:03:59;13.57;;;3.33;;
54683;SDS011;40582;53.100;6.686;2023-03-14T03:06:24;20.42;;;4.32;;
54683;SDS011;40582;53.100;6.686;2023-03-14T03:08:50;18.90;;;3.63;;
54683;SDS011;40582;53.100;6.686;2023-03-14T03:11:17;14.10;;;3.10;;
54683;SDS011;40582;53.100;6.686;2023-03-14T03:13:42;15.93;;;3.17;;
54683;SDS011;40582;53.100;6.686;2023-03-14T03:16:08;14.10;;;3.28;;
54683;SDS011;40582;53.100;6.686;2023-03-14T03:18:34;13.52;;;3.15;;
54683;SDS011;40582;53.100;6.686;2023-03-14T03:21:00;19.55;;;3.00;;
54683;SDS011;40582;53.100;6.686;2023-03-14T03:23:28;22.23;;;4.47;;
54683;SDS011;40582;53.100;6.686;2023-03-14T03:25:55;21.67;;;3.63;;
54683;SDS011;40582;53.100;6.686;2023-03-14T03:28:20;29.20;;;4.55;;
54683;SDS011;40582;53.100;6.686;2023-03-14T03:30:46;25.30;;;5.88;;
54683;SDS011;40582;53.100;6.686;2023-03-14T03:33:12;26.50;;;5.72;;
54683;SDS011;40582;53.100;6.686;2023-03-14T03:35:42;18.88;;;5.28;;
54683;SDS011;40582;53.100;6.686;2023-03-14T03:38:13;25.13;;;5.32;;
54683;SDS011;40582;53.100;6.686;2023-03-14T03:40:38;17.00;;;4.85;;
54683;SDS011;40582;53.100;6.686;2023-03-14T03:43:04;28.08;;;5.32;;
54683;SDS011;40582;53.100;6.686;2023-03-14T03:45:30;25.40;;;5.15;;
54683;SDS011;40582;53.100;6.686;2023-03-14T03:47:55;28.30;;;5.38;;
54683;SDS011;40582;53.100;6.686;2023-03-14T03:50:21;21.80;;;4.50;;
54683;SDS011;40582;53.100;6.686;2023-03-14T03:52:47;28.70;;;5.53;;
54683;SDS011;40582;53.100;6.686;2023-03-14T03:55:12;27.63;;;5.05;;
54683;SDS011;40582;53.100;6.686;2023-03-14T03:57:38;27.02;;;5.47;;
54683;SDS011;40582;53.100;6.686;2023-03-14T04:00:04;21.98;;;4.78;;
54683;SDS011;40582;53.100;6.686;2023-03-14T04:02:31;22.98;;;4.75;;
54683;SDS011;40582;53.100;6.686;2023-03-14T04:04:57;24.33;;;4.90;;
54683;SDS011;40582;53.100;6.686;2023-03-14T04:07:22;20.80;;;4.93;;
54683;SDS011;40582;53.100;6.686;2023-03-14T04:09:48;25.67;;;5.00;;
54683;SDS011;40582;53.100;6.686;2023-03-14T04:12:14;22.17;;;5.47;;
54683;SDS011;40582;53.100;6.686;2023-03-14T04:14:39;21.23;;;5.35;;
54683;SDS011;40582;53.100;6.686;2023-03-14T04:17:06;26.58;;;5.50;;
54683;SDS011;40582;53.100;6.686;2023-03-14T04:19:32;20.15;;;4.75;;
54683;SDS011;40582;53.100;6.686;2023-03-14T04:21:58;18.75;;;5.53;;
54683;SDS011;40582;53.100;6.686;2023-03-14T04:24:23;17.00;;;5.20;;
54683;SDS011;40582;53.100;6.686;2023-03-14T04:26:49;21.00;;;5.90;;
54683;SDS011;40582;53.100;6.686;2023-03-14T04:29:15;18.92;;;5.15;;
54683;SDS011;40582;53.100;6.686;2023-03-14T04:31:41;16.05;;;5.18;;
54683;SDS011;40582;53.100;6.686;2023-03-14T04:34:06;17.73;;;5.15;;
54683;SDS011;40582;53.100;6.686;2023-03-14T04:36:32;18.30;;;6.07;;
54683;SDS011;40582;53.100;6.686;2023-03-14T04:38:58;12.60;;;5.10;;
54683;SDS011;40582;53.100;6.686;2023-03-14T04:41:24;20.65;;;6.10;;
54683;SDS011;40582;53.100;6.686;2023-03-14T04:43:50;12.80;;;5.93;;
54683;SDS011;40582;53.100;6.686;2023-03-14T04:46:15;18.17;;;6.10;;
54683;SDS011;40582;53.100;6.686;2023-03-14T04:48:41;21.13;;;6.53;;
54683;SDS011;40582;53.100;6.686;2023-03-14T04:51:07;21.30;;;6.57;;
54683;SDS011;40582;53.100;6.686;2023-03-14T04:53:33;21.75;;;6.03;;
54683;SDS011;40582;53.100;6.686;2023-03-14T04:55:59;21.90;;;6.18;;
54683;SDS011;40582;53.100;6.686;2023-03-14T04:58:25;17.73;;;5.70;;
54683;SDS011;40582;53.100;6.686;2023-03-14T05:00:51;20.17;;;5.53;;
54683;SDS011;40582;53.100;6.686;2023-03-14T05:03:17;23.35;;;5.93;;
54683;SDS011;40582;53.100;6.686;2023-03-14T05:05:44;16.55;;;5.03;;
54683;SDS011;40582;53.100;6.686;2023-03-14T05:08:10;13.43;;;4.68;;
54683;SDS011;40582;53.100;6.686;2023-03-14T05:10:35;13.82;;;4.97;;
54683;SDS011;40582;53.100;6.686;2023-03-14T05:13:01;21.67;;;5.10;;
54683;SDS011;40582;53.100;6.686;2023-03-14T05:15:27;16.48;;;5.13;;
54683;SDS011;40582;53.100;6.686;2023-03-14T05:17:53;24.60;;;5.65;;
54683;SDS011;40582;53.100;6.686;2023-03-14T05:20:19;20.20;;;5.32;;
54683;SDS011;40582;53.100;6.686;2023-03-14T05:22:45;15.35;;;4.78;;
54683;SDS011;40582;53.100;6.686;2023-03-14T05:25:11;17.23;;;5.57;;
54683;SDS011;40582;53.100;6.686;2023-03-14T05:27:37;19.35;;;5.10;;
54683;SDS011;40582;53.100;6.686;2023-03-14T05:30:03;17.00;;;5.43;;
54683;SDS011;40582;53.100;6.686;2023-03-14T05:32:30;16.50;;;5.15;;
54683;SDS011;40582;53.100;6.686;2023-03-14T05:34:56;20.40;;;6.13;;
54683;SDS011;40582;53.100;6.686;2023-03-14T05:37:24;27.63;;;6.07;;
54683;SDS011;40582;53.100;6.686;2023-03-14T05:39:51;20.25;;;5.93;;
54683;SDS011;40582;53.100;6.686;2023-03-14T05:42:16;16.85;;;6.15;;
54683;SDS011;40582;53.100;6.686;2023-03-14T05:44:42;27.52;;;6.03;;
54683;SDS011;40582;53.100;6.686;2023-03-14T05:47:08;22.63;;;6.07;;
54683;SDS011;40582;53.100;6.686;2023-03-14T05:49:33;21.50;;;6.30;;
54683;SDS011;40582;53.100;6.686;2023-03-14T05:51:59;19.77;;;6.68;;
54683;SDS011;40582;53.100;6.686;2023-03-14T05:54:25;19.40;;;5.43;;
54683;SDS011;40582;53.100;6.686;2023-03-14T05:56:50;20.42;;;5.90;;
54683;SDS011;40582;53.100;6.686;2023-03-14T05:59:16;18.65;;;6.05;;
54683;SDS011;40582;53.100;6.686;2023-03-14T06:01:42;14.27;;;6.00;;
54683;SDS011;40582;53.100;6.686;2023-03-14T06:04:07;17.48;;;6.15;;
54683;SDS011;40582;53.100;6.686;2023-03-14T06:06:33;16.83;;;6.20;;
54683;SDS011;40582;53.100;6.686;2023-03-14T06:08:59;18.15;;;6.28;;
54683;SDS011;40582;53.100;6.686;2023-03-14T06:11:24;15.85;;;5.82;;
54683;SDS011;40582;53.100;6.686;2023-03-14T06:13:50;16.85;;;6.35;;
54683;SDS011;40582;53.100;6.686;2023-03-14T06:16:16;16.88;;;5.93;;
54683;SDS011;40582;53.100;6.686;2023-03-14T06:18:42;17.20;;;6.47;;
54683;SDS011;40582;53.100;6.686;2023-03-14T06:21:08;18.98;;;5.90;;
54683;SDS011;40582;53.100;6.686;2023-03-14T06:23:33;15.10;;;6.03;;
54683;SDS011;40582;53.100;6.686;2023-03-14T06:25:59;16.23;;;5.78;;
54683;SDS011;40582;53.100;6.686;2023-03-14T06:28:26;20.42;;;6.47;;
54683;SDS011;40582;53.100;6.686;2023-03-14T06:30:52;16.08;;;5.93;;
54683;SDS011;40582;53.100;6.686;2023-03-14T06:33:17;14.13;;;5.25;;
54683;SDS011;40582;53.100;6.686;2023-03-14T06:35:43;17.30;;;5.57;;
54683;SDS011;40582;53.100;6.686;2023-03-14T06:38:09;15.75;;;5.85;;
54683;SDS011;40582;53.100;6.686;2023-03-14T06:40:35;14.38;;;5.30;;
54683;SDS011;40582;53.100;6.686;2023-03-14T06:43:00;15.55;;;4.88;;
54683;SDS011;40582;53.100;6.686;2023-03-14T06:45:26;13.80;;;4.75;;
54683;SDS011;40582;53.100;6.686;2023-03-14T06:47:51;11.07;;;4.80;;
54683;SDS011;40582;53.100;6.686;2023-03-14T06:50:17;12.45;;;4.68;;
54683;SDS011;40582;53.100;6.686;2023-03-14T06:52:43;14.73;;;3.50;;
54683;SDS011;40582;53.100;6.686;2023-03-14T06:55:13;11.20;;;2.22;;
54683;SDS011;40582;53.100;6.686;2023-03-14T06:57:39;7.80;;;2.17;;
54683;SDS011;40582;53.100;6.686;2023-03-14T07:00:05;13.55;;;2.20;;
54683;SDS011;40582;53.100;6.686;2023-03-14T07:02:32;10.90;;;2.03;;
54683;SDS011;40582;53.100;6.686;2023-03-14T07:04:57;13.52;;;2.05;;
54683;SDS011;40582;53.100;6.686;2023-03-14T07:07:23;8.25;;;1.88;;
54683;SDS011;40582;53.100;6.686;2023-03-14T07:09:49;8.52;;;2.22;;
54683;SDS011;40582;53.100;6.686;2023-03-14T07:12:14;12.63;;;2.45;;
54683;SDS011;40582;53.100;6.686;2023-03-14T07:14:40;17.00;;;2.60;;
54683;SDS011;40582;53.100;6.686;2023-03-14T07:17:05;9.60;;;2.22;;
54683;SDS011;40582;53.100;6.686;2023-03-14T07:19:31;14.10;;;2.08;;
54683;SDS011;40582;53.100;6.686;2023-03-14T07:21:57;21.52;;;2.25;;
54683;SDS011;40582;53.100;6.686;2023-03-14T07:24:22;20.40;;;2.58;;
54683;SDS011;40582;53.100;6.686;2023-03-14T07:26:48;15.43;;;2.90;;
54683;SDS011;40582;53.100;6.686;2023-03-14T07:29:14;16.77;;;2.67;;
54683;SDS011;40582;53.100;6.686;2023-03-14T07:31:39;16.35;;;2.40;;
54683;SDS011;40582;53.100;6.686;2023-03-14T07:34:05;13.07;;;2.38;;
54683;SDS011;40582;53.100;6.686;2023-03-14T07:36:31;9.23;;;1.63;;
54683;SDS011;40582;53.100;6.686;2023-03-14T07:38:57;8.52;;;1.90;;
54683;SDS011;40582;53.100;6.686;2023-03-14T07:41:22;8.55;;;1.63;;
54683;SDS011;40582;53.100;6.686;2023-03-14T07:43:48;7.90;;;1.67;;
54683;SDS011;40582;53.100;6.686;2023-03-14T07:46:14;8.38;;;1.10;;
54683;SDS011;40582;53.100;6.686;2023-03-14T07:48:40;6.68;;;1.60;;
54683;SDS011;40582;53.100;6.686;2023-03-14T07:51:06;7.95;;;1.40;;
54683;SDS011;40582;53.100;6.686;2023-03-14T07:53:32;6.38;;;1.10;;
54683;SDS011;40582;53.100;6.686;2023-03-14T07:55:58;4.70;;;1.05;;
54683;SDS011;40582;53.100;6.686;2023-03-14T07:58:24;5.20;;;1.63;;
54683;SDS011;40582;53.100;6.686;2023-03-14T08:00:50;8.27;;;1.30;;
54683;SDS011;40582;53.100;6.686;2023-03-14T08:03:17;6.00;;;1.13;;
54683;SDS011;40582;53.100;6.686;2023-03-14T08:05:43;8.30;;;1.30;;
54683;SDS011;40582;53.100;6.686;2023-03-14T08:08:09;5.32;;;1.13;;
54683;SDS011;40582;53.100;6.686;2023-03-14T08:10:34;6.53;;;1.27;;
54683;SDS011;40582;53.100;6.686;2023-03-14T08:13:00;5.82;;;0.70;;
54683;SDS011;40582;53.100;6.686;2023-03-14T08:15:27;4.00;;;1.10;;
54683;SDS011;40582;53.100;6.686;2023-03-14T08:17:54;2.95;;;0.73;;
54683;SDS011;40582;53.100;6.686;2023-03-14T08:20:20;7.13;;;1.40;;
54683;SDS011;40582;53.100;6.686;2023-03-14T08:22:47;7.22;;;1.08;;
54683;SDS011;40582;53.100;6.686;2023-03-14T08:25:13;6.80;;;1.15;;
54683;SDS011;40582;53.100;6.686;2023-03-14T08:27:40;6.13;;;1.10;;
54683;SDS011;40582;53.100;6.686;2023-03-14T08:30:08;5.70;;;1.17;;
54683;SDS011;40582;53.100;6.686;2023-03-14T08:32:35;2.13;;;0.90;;
54683;SDS011;40582;53.100;6.686;2023-03-14T08:35:01;6.70;;;1.58;;
54683;SDS011;40582;53.100;6.686;2023-03-14T08:37:27;7.90;;;1.33;;
54683;SDS011;40582;53.100;6.686;2023-03-14T08:39:53;11.73;;;1.42;;
54683;SDS011;40582;53.100;6.686;2023-03-14T08:42:19;6.00;;;1.40;;
54683;SDS011;40582;53.100;6.686;2023-03-14T08:44:44;13.00;;;1.58;;
54683;SDS011;40582;53.100;6.686;2023-03-14T08:47:10;6.78;;;1.25;;
54683;SDS011;40582;53.100;6.686;2023-03-14T08:49:36;8.18;;;1.73;;
54683;SDS011;40582;53.100;6.686;2023-03-14T08:52:04;9.82;;;1.83;;
54683;SDS011;40582;53.100;6.686;2023-03-14T08:54:30;9.43;;;1.65;;
54683;SDS011;40582;53.100;6.686;2023-03-14T08:56:56;21.58;;;2.47;;
54683;SDS011;40582;53.100;6.686;2023-03-14T08:59:22;12.68;;;2.20;;
54683;SDS011;40582;53.100;6.686;2023-03-14T09:01:48;9.85;;;2.05;;
54683;SDS011;40582;53.100;6.686;2023-03-14T09:04:14;12.63;;;2.47;;
54683;SDS011;40582;53.100;6.686;2023-03-14T09:06:40;13.50;;;2.53;;
54683;SDS011;40582;53.100;6.686;2023-03-14T09:09:06;16.70;;;2.70;;
54683;SDS011;40582;53.100;6.686;2023-03-14T09:11:31;18.77;;;2.33;;
54683;SDS011;40582;53.100;6.686;2023-03-14T09:13:58;16.98;;;3.33;;
54683;SDS011;40582;53.100;6.686;2023-03-14T09:16:23;19.65;;;3.35;;
54683;SDS011;40582;53.100;6.686;2023-03-14T09:18:49;13.38;;;2.90;;
54683;SDS011;40582;53.100;6.686;2023-03-14T09:21:18;22.90;;;3.45;;
54683;SDS011;40582;53.100;6.686;2023-03-14T09:23:43;23.67;;;4.07;;
54683;SDS011;40582;53.100;6.686;2023-03-14T09:26:10;20.02;;;3.53;;
54683;SDS011;40582;53.100;6.686;2023-03-14T09:28:36;23.95;;;4.60;;
54683;SDS011;40582;53.100;6.686;2023-03-14T09:31:06;21.00;;;3.60;;
54683;SDS011;40582;53.100;6.686;2023-03-14T09:33:33;25.15;;;3.53;;
54683;SDS011;40582;53.100;6.686;2023-03-14T09:35:59;23.50;;;4.40;;
54683;SDS011;40582;53.100;6.686;2023-03-14T09:38:25;26.90;;;3.88;;
54683;SDS011;40582;53.100;6.686;2023-03-14T09:40:51;27.45;;;4.25;;
54683;SDS011;40582;53.100;6.686;2023-03-14T09:43:18;25.95;;;4.10;;
54683;SDS011;40582;53.100;6.686;2023-03-14T09:45:46;28.65;;;4.35;;
54683;SDS011;40582;53.100;6.686;2023-03-14T09:48:17;25.15;;;4.07;;
54683;SDS011;40582;53.100;6.686;2023-03-14T09:50:51;25.25;;;4.22;;
54683;SDS011;40582;53.100;6.686;2023-03-14T09:53:20;33.65;;;5.10;;
54683;SDS011;40582;53.100;6.686;2023-03-14T09:55:54;23.40;;;4.00;;
54683;SDS011;40582;53.100;6.686;2023-03-14T09:58:22;26.00;;;4.28;;
54683;SDS011;40582;53.100;6.686;2023-03-14T10:00:49;27.15;;;4.80;;
54683;SDS011;40582;53.100;6.686;2023-03-14T10:03:33;33.83;;;4.90;;
54683;SDS011;40582;53.100;6.686;2023-03-14T10:06:00;30.48;;;4.72;;
54683;SDS011;40582;53.100;6.686;2023-03-14T10:08:26;31.92;;;5.45;;
54683;SDS011;40582;53.100;6.686;2023-03-14T10:10:52;28.75;;;5.03;;
54683;SDS011;40582;53.100;6.686;2023-03-14T10:13:21;28.13;;;4.35;;
54683;SDS011;40582;53.100;6.686;2023-03-14T10:15:59;39.17;;;5.10;;
54683;SDS011;40582;53.100;6.686;2023-03-14T10:18:28;33.95;;;3.88;;
54683;SDS011;40582;53.100;6.686;2023-03-14T10:21:03;25.27;;;4.63;;
54683;SDS011;40582;53.100;6.686;2023-03-14T10:23:41;33.80;;;5.15;;
54683;SDS011;40582;53.100;6.686;2023-03-14T10:26:18;35.60;;;4.90;;
54683;SDS011;40582;53.100;6.686;2023-03-14T10:28:52;34.00;;;5.20;;
54683;SDS011;40582;53.100;6.686;2023-03-14T10:31:26;26.73;;;4.88;;
54683;SDS011;40582;53.100;6.686;2023-03-14T10:33:58;35.00;;;4.97;;
54683;SDS011;40582;53.100;6.686;2023-03-14T10:36:27;26.35;;;4.72;;
54683;SDS011;40582;53.100;6.686;2023-03-14T10:41:49;26.83;;;4.63;;
54683;SDS011;40582;53.100;6.686;2023-03-14T10:44:19;25.92;;;5.13;;
54683;SDS011;40582;53.100;6.686;2023-03-14T10:46:58;30.42;;;4.53;;
54683;SDS011;40582;53.100;6.686;2023-03-14T10:49:36;20.88;;;3.75;;
54683;SDS011;40582;53.100;6.686;2023-03-14T10:54:34;19.13;;;3.85;;
54683;SDS011;40582;53.100;6.686;2023-03-14T10:57:00;30.60;;;4.35;;
54683;SDS011;40582;53.100;6.686;2023-03-14T10:59:31;21.98;;;3.80;;
54683;SDS011;40582;53.100;6.686;2023-03-14T11:02:04;20.30;;;3.30;;
54683;SDS011;40582;53.100;6.686;2023-03-14T11:05:03;25.85;;;3.63;;
54683;SDS011;40582;53.100;6.686;2023-03-14T11:07:47;32.50;;;4.13;;
54683;SDS011;40582;53.100;6.686;2023-03-14T11:15:46;21.00;;;3.65;;
54683;SDS011;40582;53.100;6.686;2023-03-14T11:18:19;17.13;;;3.65;;
54683;SDS011;40582;53.100;6.686;2023-03-14T11:21:04;21.17;;;3.45;;
54683;SDS011;40582;53.100;6.686;2023-03-14T11:23:41;15.43;;;3.22;;
54683;SDS011;40582;53.100;6.686;2023-03-14T11:26:18;14.75;;;3.47;;
54683;SDS011;40582;53.100;6.686;2023-03-14T11:28:50;17.15;;;2.72;;
54683;SDS011;40582;53.100;6.686;2023-03-14T11:31:31;14.95;;;3.03;;
54683;SDS011;40582;53.100;6.686;2023-03-14T11:34:16;13.05;;;2.78;;
54683;SDS011;40582;53.100;6.686;2023-03-14T11:36:48;19.65;;;3.45;;
54683;SDS011;40582;53.100;6.686;2023-03-14T11:39:15;13.63;;;3.15;;
54683;SDS011;40582;53.100;6.686;2023-03-14T11:41:47;13.90;;;2.10;;
54683;SDS011;40582;53.100;6.686;2023-03-14T11:46:52;14.98;;;2.35;;
54683;SDS011;40582;53.100;6.686;2023-03-14T11:49:39;9.75;;;2.17;;
54683;SDS011;40582;53.100;6.686;2023-03-14T11:52:20;11.77;;;2.22;;
54683;SDS011;40582;53.100;6.686;2023-03-14T11:57:37;12.90;;;2.55;;
54683;SDS011;40582;53.100;6.686;2023-03-14T12:02:51;10.02;;;2.70;;
54683;SDS011;40582;53.100;6.686;2023-03-14T12:08:32;8.55;;;2.38;;
54683;SDS011;40582;53.100;6.686;2023-03-14T12:13:57;17.83;;;2.65;;
54683;SDS011;40582;53.100;6.686;2023-03-14T12:18:49;13.52;;;2.97;;
54683;SDS011;40582;53.100;6.686;2023-03-14T12:21:16;9.82;;;2.22;;
54683;SDS011;40582;53.100;6.686;2023-03-14T12:31:41;10.05;;;2.40;;
54683;SDS011;40582;53.100;6.686;2023-03-14T12:42:08;20.13;;;3.25;;
54683;SDS011;40582;53.100;6.686;2023-03-14T12:44:52;14.70;;;2.78;;
54683;SDS011;40582;53.100;6.686;2023-03-14T12:50:18;14.43;;;3.00;;
54683;SDS011;40582;53.100;6.686;2023-03-14T13:00:41;19.35;;;4.05;;
54683;SDS011;40582;53.100;6.686;2023-03-14T13:03:20;17.38;;;3.35;;
54683;SDS011;40582;53.100;6.686;2023-03-14T13:06:03;19.70;;;3.10;;
54683;SDS011;40582;53.100;6.686;2023-03-14T13:08:40;19.73;;;3.28;;
54683;SDS011;40582;53.100;6.686;2023-03-14T13:11:09;17.60;;;3.33;;
54683;SDS011;40582;53.100;6.686;2023-03-14T13:13:47;15.20;;;3.35;;
54683;SDS011;40582;53.100;6.686;2023-03-14T13:16:24;15.93;;;3.45;;
54683;SDS011;40582;53.100;6.686;2023-03-14T13:19:00;19.73;;;3.10;;
54683;SDS011;40582;53.100;6.686;2023-03-14T13:21:29;21.35;;;3.83;;
54683;SDS011;40582;53.100;6.686;2023-03-14T13:24:05;16.83;;;3.08;;
54683;SDS011;40582;53.100;6.686;2023-03-14T13:26:36;15.25;;;2.47;;
54683;SDS011;40582;53.100;6.686;2023-03-14T13:31:44;10.18;;;2.03;;
54683;SDS011;40582;53.100;6.686;2023-03-14T13:34:18;11.50;;;2.20;;
54683;SDS011;40582;53.100;6.686;2023-03-14T13:36:44;8.23;;;2.28;;
54683;SDS011;40582;53.100;6.686;2023-03-14T13:39:10;6.72;;;1.90;;
54683;SDS011;40582;53.100;6.686;2023-03-14T13:41:39;10.02;;;2.10;;
54683;SDS011;40582;53.100;6.686;2023-03-14T13:44:07;10.85;;;2.42;;
54683;SDS011;40582;53.100;6.686;2023-03-14T13:46:46;15.15;;;2.58;;
54683;SDS011;40582;53.100;6.686;2023-03-14T13:49:16;9.13;;;2.40;;
54683;SDS011;40582;53.100;6.686;2023-03-14T13:51:48;11.60;;;2.42;;
54683;SDS011;40582;53.100;6.686;2023-03-14T13:54:14;18.92;;;2.30;;
54683;SDS011;40582;53.100;6.686;2023-03-14T13:56:41;16.85;;;2.60;;
54683;SDS011;40582;53.100;6.686;2023-03-14T13:59:23;9.52;;;2.90;;
54683;SDS011;40582;53.100;6.686;2023-03-14T14:01:49;15.70;;;2.50;;
54683;SDS011;40582;53.100;6.686;2023-03-14T14:04:20;18.38;;;2.53;;
54683;SDS011;40582;53.100;6.686;2023-03-14T14:06:49;12.70;;;2.50;;
54683;SDS011;40582;53.100;6.686;2023-03-14T14:09:20;10.13;;;2.35;;
54683;SDS011;40582;53.100;6.686;2023-03-14T14:14:25;18.40;;;3.00;;
54683;SDS011;40582;53.100;6.686;2023-03-14T14:16:59;19.60;;;2.50;;
54683;SDS011;40582;53.100;6.686;2023-03-14T14:19:27;9.65;;;2.00;;
54683;SDS011;40582;53.100;6.686;2023-03-14T14:21:55;12.35;;;2.22;;
54683;SDS011;40582;53.100;6.686;2023-03-14T14:24:23;18.42;;;2.90;;
54683;SDS011;40582;53.100;6.686;2023-03-14T14:26:53;19.13;;;2.78;;
54683;SDS011;40582;53.100;6.686;2023-03-14T14:29:31;10.60;;;2.78;;
54683;SDS011;40582;53.100;6.686;2023-03-14T14:34:43;5.55;;;1.63;;
54683;SDS011;40582;53.100;6.686;2023-03-14T14:39:48;12.65;;;1.90;;
54683;SDS011;40582;53.100;6.686;2023-03-14T14:42:19;16.52;;;2.60;;
54683;SDS011;40582;53.100;6.686;2023-03-14T14:44:47;9.40;;;2.58;;
54683;SDS011;40582;53.100;6.686;2023-03-14T14:47:16;11.68;;;2.30;;
54683;SDS011;40582;53.100;6.686;2023-03-14T14:49:45;11.45;;;2.03;;
54683;SDS011;40582;53.100;6.686;2023-03-14T14:52:17;19.40;;;3.15;;
54683;SDS011;40582;53.100;6.686;2023-03-14T14:54:46;14.88;;;2.65;;
54683;SDS011;40582;53.100;6.686;2023-03-14T14:57:20;21.00;;;3.65;;
54683;SDS011;40582;53.100;6.686;2023-03-14T14:59:48;14.35;;;2.78;;
54683;SDS011;40582;53.100;6.686;2023-03-14T15:02:29;15.68;;;2.70;;
54683;SDS011;40582;53.100;6.686;2023-03-14T15:05:16;15.00;;;2.78;;
54683;SDS011;40582;53.100;6.686;2023-03-14T15:07:43;17.33;;;2.95;;
54683;SDS011;40582;53.100;6.686;2023-03-14T15:10:10;11.35;;;2.70;;
54683;SDS011;40582;53.100;6.686;2023-03-14T15:12:43;18.45;;;2.75;;
54683;SDS011;40582;53.100;6.686;2023-03-14T15:15:09;22.27;;;3.15;;
54683;SDS011;40582;53.100;6.686;2023-03-14T15:17:35;13.10;;;2.42;;
54683;SDS011;40582;53.100;6.686;2023-03-14T15:20:03;8.32;;;2.25;;
54683;SDS011;40582;53.100;6.686;2023-03-14T15:22:30;9.05;;;2.17;;
54683;SDS011;40582;53.100;6.686;2023-03-14T15:24:56;12.30;;;2.03;;
54683;SDS011;40582;53.100;6.686;2023-03-14T15:27:21;11.00;;;2.08;;
54683;SDS011;40582;53.100;6.686;2023-03-14T15:29:48;12.80;;;2.45;;
54683;SDS011;40582;53.100;6.686;2023-03-14T15:32:14;13.48;;;2.60;;
54683;SDS011;40582;53.100;6.686;2023-03-14T15:34:43;10.88;;;2.30;;
54683;SDS011;40582;53.100;6.686;2023-03-14T15:37:10;12.63;;;2.30;;
54683;SDS011;40582;53.100;6.686;2023-03-14T15:39:38;16.90;;;2.92;;
54683;SDS011;40582;53.100;6.686;2023-03-14T15:42:05;9.23;;;2.35;;
54683;SDS011;40582;53.100;6.686;2023-03-14T15:44:30;17.55;;;2.97;;
54683;SDS011;40582;53.100;6.686;2023-03-14T15:46:56;14.00;;;2.80;;
54683;SDS011;40582;53.100;6.686;2023-03-14T15:49:22;13.18;;;2.63;;
54683;SDS011;40582;53.100;6.686;2023-03-14T15:51:47;18.95;;;3.50;;
54683;SDS011;40582;53.100;6.686;2023-03-14T15:54:13;18.20;;;3.38;;